ADDS METAR Data INFO
IDs: Format: Raw Decoded Include TAF

Data at: 0158 UTC 17 Oct 2017

KDAG 170150Z AUTO 16003KT 10SM CLR 24/M13 A3010 RMK AO2 SLP180 T02391133
KDAG 170050Z AUTO 09005KT 10SM CLR 27/M12 A3010 RMK AO2 SLP177 T02721122
KDAG 162350Z AUTO 10005KT 10SM CLR 29/M13 A3011 RMK AO2 SLP178 T02891128 10300 20233 56016
KDAG 162250Z AUTO 11006KT 10SM CLR 29/M13 A3013 RMK AO2 SLP184 T02941128
KDAG 162150Z AUTO 08005KT 10SM CLR 28/M13 A3014 RMK AO2 SLP189 T02831133
KDAG 162050Z AUTO 07004KT 10SM CLR 29/M12 A3016 RMK AO2 SLP196 T02941122 58027
KDAG 161950Z AUTO VRB03KT 10SM CLR 27/M12 A3020 RMK AO2 SLP209 T02721122
KDAG 161850Z AUTO VRB04KT 10SM CLR 26/M12 A3022 RMK AO2 SLP219 T02561117
KDAG 161750Z AUTO 27007KT 10SM CLR 23/M13 A3025 RMK AO2 SLP228 T02331128 10233 20100 50003
KDAG 161650Z AUTO 27009KT 10SM CLR 19/M13 A3026 RMK AO2 SLP233 T01941128
KDAG 161550Z AUTO 27010KT 10SM CLR 16/M12 A3026 RMK AO2 SLP233 T01611117
KDAG 161450Z AUTO 27010KT 10SM CLR 12/M12 A3024 RMK AO2 SLP226 T01221117 53011
KDAG 160950Z AUTO 27009KT 10SM CLR 13/M13 A3022 RMK AO2 SLP215 T01281128 $
KDAG 160850Z AUTO 29005KT 10SM CLR 12/M13 A3021 RMK AO2 SLP216 T01171128 55000 $
KDAG 160750Z AUTO 27006KT 10SM CLR 11/M12 A3021 RMK AO2 SLP216 T01111122 402780061 $
KDAG 160650Z AUTO 27005KT 10SM CLR 12/M12 A3021 RMK AO2 SLP216 T01221117 $
KDAG 160550Z AUTO 25003KT 10SM CLR 13/M13 A3022 RMK AO2 SLP217 T01331128 10272 20133 51009 $
KDAG 160450Z AUTO 28006KT 10SM CLR 14/M10 A3022 RMK AO2 SLP219 T01391100
KDAG 160350Z AUTO 00000KT 10SM CLR 17/M12 A3020 RMK AO2 SLP213 T01671117
KDAG 160250Z AUTO 17006KT 10SM CLR 21/M13 A3019 RMK AO2 SLP209 T02111133 53003
KDAG 160150Z AUTO 16005KT 10SM CLR 22/M14 A3017 RMK AO2 SLP207 T02171139
KDAG 160050Z AUTO 11003KT 10SM CLR 26/M13 A3017 RMK AO2 SLP202 T02611128
KDAG 152350Z AUTO 07006KT 10SM CLR 27/M12 A3018 RMK AO2 SLP204 T02671117 10278 20217 56016
KDAG 152250Z AUTO 09004KT 10SM CLR 27/M13 A3019 RMK AO2 SLP206 T02721128
KDAG 152150Z AUTO 00000KT 10SM CLR 26/M13 A3020 RMK AO2 SLP213 T02611128
KDAG 152050Z AUTO 07008KT 10SM CLR 26/M12 A3023 RMK AO2 SLP220 T02561122 58021
KDAG 151950Z AUTO 04007KT 10SM CLR 25/M12 A3026 RMK AO2 SLP232 T02501122
KDAG 151850Z AUTO VRB03KT 10SM CLR 23/M12 A3028 RMK AO2 SLP239 T02331122
KDAG 151750Z AUTO 06004KT 10SM CLR 22/M07 A3029 RMK AO2 SLP243 T02171067 10217 20061 50007
KDAG 151650Z AUTO 00000KT 10SM CLR 18/M08 A3030 RMK AO2 SLP244 T01831078
KDAG 151550Z AUTO 00000KT 10SM CLR 16/M09 A3029 RMK AO2 SLP245 T01561089
KDAG 151450Z AUTO 28005KT 10SM CLR 11/M10 A3027 RMK AO2 SLP238 T01061100 53015